createdAt,value
2023-04-04T00:01:12.880Z,9.30
2023-04-04T00:11:38.454Z,8.60
2023-04-04T00:22:04.020Z,9.20
2023-04-04T00:32:29.798Z,9.30
2023-04-04T00:42:58.230Z,11.20
2023-04-04T00:53:24.200Z,8.40
2023-04-04T01:03:50.393Z,9.90
2023-04-04T01:14:16.407Z,8.10
2023-04-04T01:24:44.286Z,8.80
2023-04-04T01:35:21.482Z,7.30
2023-04-04T01:45:47.738Z,6.00
2023-04-04T01:56:13.898Z,7.60
2023-04-04T02:06:39.610Z,8.80
2023-04-04T02:17:06.022Z,7.70
2023-04-04T02:27:31.995Z,7.00
2023-04-04T02:37:58.028Z,8.40
2023-04-04T02:48:25.990Z,5.90
2023-04-04T02:58:51.868Z,6.20
2023-04-04T03:09:17.698Z,8.10
2023-04-04T03:19:43.318Z,7.30
2023-04-04T03:30:11.317Z,10.30
2023-04-04T03:40:37.351Z,7.10
2023-04-04T03:51:07.892Z,6.30
2023-04-04T04:01:33.792Z,7.50
2023-04-04T04:11:59.721Z,11.00
2023-04-04T04:22:25.916Z,8.10
2023-04-04T04:32:53.750Z,9.90
2023-04-04T04:43:20.086Z,8.70
2023-04-04T04:53:46.176Z,8.50
2023-04-04T05:04:12.439Z,11.00
2023-04-04T05:14:39.617Z,14.10
2023-04-04T05:25:06.798Z,9.50
2023-04-04T05:35:32.271Z,11.90
2023-04-04T05:45:58.030Z,11.30
2023-04-04T05:56:25.109Z,7.60
2023-04-04T06:06:52.346Z,8.70
2023-04-04T06:17:18.015Z,10.50
2023-04-04T06:27:44.323Z,10.70
2023-04-04T06:38:10.245Z,6.60
2023-04-04T06:48:36.119Z,5.80
2023-04-04T06:59:02.354Z,9.10
2023-04-04T07:09:29.832Z,4.50
2023-04-04T07:19:56.085Z,4.10
2023-04-04T07:30:27.532Z,5.80
2023-04-04T07:40:53.559Z,3.30
2023-04-04T07:51:24.267Z,7.60
2023-04-04T08:01:50.036Z,6.00
2023-04-04T08:12:15.844Z,5.30
2023-04-04T08:22:42.283Z,7.30
2023-04-04T08:33:07.869Z,3.50
2023-04-04T08:43:38.378Z,5.30
2023-04-04T08:54:05.090Z,4.00
2023-04-04T09:04:32.725Z,8.30
2023-04-04T09:15:00.895Z,4.10
2023-04-04T09:25:27.007Z,3.80
2023-04-04T09:35:58.979Z,4.90
2023-04-04T09:46:27.324Z,4.70
2023-04-04T09:56:54.553Z,3.20
2023-04-04T10:07:20.180Z,5.50
2023-04-04T10:17:48.713Z,3.80
2023-04-04T10:38:45.057Z,4.80
2023-04-04T10:49:11.813Z,3.00
2023-04-04T11:00:05.100Z,4.10
2023-04-04T11:10:33.138Z,3.70
2023-04-04T11:20:59.796Z,4.90
2023-04-04T11:31:36.045Z,2.70
2023-04-04T11:42:08.372Z,4.00
2023-04-04T11:52:38.491Z,6.80
2023-04-04T12:03:05.678Z,5.10
2023-04-04T12:13:34.637Z,5.10
2023-04-04T12:24:00.931Z,4.70
2023-04-04T12:45:05.431Z,6.10
2023-04-04T12:55:34.118Z,4.70
2023-04-04T13:06:01.219Z,7.40
2023-04-04T13:16:35.988Z,6.50
2023-04-04T13:27:01.571Z,4.60
2023-04-04T13:37:28.192Z,6.60
2023-04-04T13:47:54.211Z,8.50
2023-04-04T13:58:20.830Z,6.20
2023-04-04T14:08:47.674Z,4.90
2023-04-04T14:19:13.298Z,6.30
2023-04-04T14:29:39.042Z,8.30
2023-04-04T14:40:05.262Z,6.60
2023-04-04T14:50:30.987Z,5.40
2023-04-04T15:00:56.740Z,4.80
2023-04-04T15:11:22.287Z,10.40
2023-04-04T15:21:48.583Z,4.10
2023-04-04T15:32:14.928Z,4.90
2023-04-04T15:42:41.587Z,8.90
2023-04-04T15:53:07.761Z,6.50
2023-04-04T16:03:33.563Z,3.10
2023-04-04T16:14:01.143Z,7.90
2023-04-04T16:24:27.754Z,6.00
2023-04-04T16:34:54.537Z,5.60
2023-04-04T16:45:21.829Z,9.10
2023-04-04T16:55:47.543Z,6.70
2023-04-04T17:06:14.072Z,11.60
2023-04-04T17:16:40.126Z,5.10
2023-04-04T17:27:06.503Z,6.50
2023-04-04T17:37:32.612Z,10.50
2023-04-04T17:47:58.781Z,9.30
2023-04-04T17:58:26.097Z,12.30
2023-04-04T18:08:52.027Z,9.00
2023-04-04T18:19:18.309Z,10.40
2023-04-04T18:29:44.295Z,10.60
2023-04-04T18:40:11.531Z,11.20
2023-04-04T18:50:37.363Z,17.60
2023-04-04T19:01:06.544Z,14.80
2023-04-04T19:11:32.609Z,19.00
2023-04-04T19:21:58.519Z,20.80
2023-04-04T19:32:28.041Z,13.50
2023-04-04T19:42:53.534Z,18.20
2023-04-04T19:53:27.665Z,16.20
2023-04-04T20:03:53.540Z,14.30
2023-04-04T20:14:22.577Z,15.10
2023-04-04T20:35:29.425Z,17.10
2023-04-04T20:45:56.188Z,21.00
2023-04-04T20:56:46.560Z,21.70
2023-04-04T21:07:34.785Z,22.70
2023-04-04T21:18:02.881Z,26.60
2023-04-04T21:28:32.588Z,22.20
2023-04-04T21:38:59.789Z,28.20
2023-04-04T21:49:26.286Z,27.30
2023-04-04T21:59:52.131Z,33.60
2023-04-04T22:10:18.844Z,34.40
2023-04-04T22:20:46.064Z,32.40
2023-04-04T22:31:12.076Z,42.60
2023-04-04T22:41:37.533Z,36.90
2023-04-04T22:52:07.060Z,47.70
2023-04-04T23:02:33.844Z,52.90
2023-04-04T23:12:59.549Z,72.30
2023-04-04T23:23:25.117Z,77.80
2023-04-04T23:33:51.023Z,73.20
2023-04-04T23:44:17.644Z,74.10
2023-04-04T23:54:43.408Z,57.30
